Westerly, Rhode Island
Current Conditions -  °F | °C
As of 7:53 PM on Friday 28 Nov 2014 (Local Time) from KWST Reporting Station
Clear Clear  
Wind Chill: 24°   Ceiling: Unl
Heat Index: 30°   Visibility: 10mi
Dew Point: 14°   Wind: 6mph
Humidity: 51%   Direction: 320°NW
Pressure: 30.21"   Gusts: NA
Location:  41.38°N, 71.83°W
Report Text: KWST 290053Z AUTO 32005KT 10SM CLR M01/M10 A3021 RMK AO2 SLP229 T10111100
Loading
Personal Weather Stations






























Interactive Weather Map New forecast layout! Learn more

10-Day Weather Forecast

Advertisements
Track Severe Weather on mobile